Time;durP1;ratioP1;P1;durP2;ratioP2;P2;SDS_P1;SDS_P2;PMS_P1;PMS_P2;Temp;Humidity;BMP_temperature;BMP_pressure;BME280_temperature;BME280_humidity;BME280_pressure;Samples;Min_cycle;Max_cycle;Signal;HPM_P1;HPM_P2
2023/11/10 00:01:51;;;;;;;3.77;1.00;;;9.30;99.90;;;;;;5021944;28;20187;-74
2023/11/10 00:04:19;;;;;;;2.70;0.63;;;9.40;99.90;;;;;;5043342;28;20239;-74
2023/11/10 00:06:46;;;;;;;3.13;0.70;;;9.40;99.90;;;;;;5041765;28;20204;-74
2023/11/10 00:09:14;;;;;;;1.50;0.60;;;9.40;99.90;;;;;;5072602;28;20240;-74
2023/11/10 00:11:41;;;;;;;1.30;0.60;;;9.50;99.90;;;;;;5054778;28;20178;-75
2023/11/10 00:14:07;;;;;;;1.50;0.80;;;9.50;99.90;;;;;;5054738;28;20184;-75
2023/11/10 00:16:33;;;;;;;1.35;0.60;;;9.60;99.90;;;;;;5046445;28;20200;-74
2023/11/10 00:18:59;;;;;;;1.80;0.60;;;9.60;99.90;;;;;;5072628;28;20180;-75
2023/11/10 00:21:24;;;;;;;3.10;0.70;;;9.60;99.90;;;;;;5054415;28;20168;-75
2023/11/10 00:23:52;;;;;;;1.90;0.80;;;9.60;99.90;;;;;;5054584;28;20232;-75
2023/11/10 00:26:22;;;;;;;2.88;0.80;;;9.60;99.90;;;;;;5051023;28;21099;-75
2023/11/10 00:28:50;;;;;;;3.78;0.70;;;9.60;99.90;;;;;;5042264;28;20229;-75
2023/11/10 00:31:15;;;;;;;2.47;0.70;;;9.60;99.90;;;;;;5054275;28;20786;-75
2023/11/10 00:33:41;;;;;;;2.43;0.70;;;9.60;99.90;;;;;;5037848;28;20168;-75
2023/11/10 00:36:07;;;;;;;2.23;0.70;;;9.60;99.90;;;;;;5054359;28;20196;-75
2023/11/10 00:38:33;;;;;;;1.50;0.70;;;9.50;99.90;;;;;;5046272;28;20642;-75
2023/11/10 00:40:59;;;;;;;2.50;0.80;;;9.50;99.90;;;;;;5071884;28;20638;-75
2023/11/10 00:43:24;;;;;;;2.10;0.70;;;9.50;99.90;;;;;;5053341;28;20581;-75
2023/11/10 00:45:51;;;;;;;1.90;0.60;;;9.50;99.90;;;;;;5037628;28;20183;-75
2023/11/10 00:48:19;;;;;;;1.80;0.80;;;9.40;99.90;;;;;;5072269;28;20180;-75
2023/11/10 00:50:46;;;;;;;3.50;0.70;;;9.50;99.90;;;;;;5022279;28;20173;-75
2023/11/10 00:53:11;;;;;;;1.30;0.60;;;9.50;99.90;;;;;;5052964;28;20173;-75
2023/11/10 00:55:38;;;;;;;3.78;1.00;;;9.50;99.90;;;;;;5054150;28;20187;-75
2023/11/10 00:58:03;;;;;;;2.70;1.07;;;9.50;99.90;;;;;;5020928;28;20673;-75
2023/11/10 01:00:30;;;;;;;1.30;0.60;;;9.50;99.90;;;;;;5049172;28;20169;-75
2023/11/10 01:02:55;;;;;;;2.40;0.60;;;9.60;99.90;;;;;;5009380;28;20241;-74
2023/11/10 01:05:21;;;;;;;1.63;0.70;;;9.60;99.90;;;;;;5037566;28;20176;-75
2023/11/10 01:07:48;;;;;;;2.25;0.70;;;9.50;99.90;;;;;;5020655;28;20265;-75
2023/11/10 01:10:14;;;;;;;1.55;0.70;;;9.50;99.90;;;;;;5071555;28;20209;-75
2023/11/10 01:12:40;;;;;;;6.27;0.97;;;9.50;99.90;;;;;;5037069;28;20172;-75
2023/11/10 01:15:08;;;;;;;1.42;0.55;;;9.50;99.90;;;;;;5071602;28;20285;-75
2023/11/10 01:17:34;;;;;;;1.55;0.60;;;9.50;99.90;;;;;;5053435;28;20200;-75
2023/11/10 01:20:00;;;;;;;1.80;0.60;;;9.50;99.90;;;;;;5053486;28;20176;-74
2023/11/10 01:22:27;;;;;;;1.67;0.63;;;9.50;99.90;;;;;;5036972;28;20278;-75
2023/11/10 01:24:53;;;;;;;2.17;0.70;;;9.50;99.90;;;;;;5021215;28;20235;-75
2023/11/10 01:27:19;;;;;;;2.88;0.82;;;9.50;99.90;;;;;;5036276;28;20257;-74
2023/11/10 01:29:48;;;;;;;3.10;0.70;;;9.60;99.90;;;;;;5036714;28;20168;-74
2023/11/10 01:32:13;;;;;;;2.20;0.80;;;9.60;99.90;;;;;;5053130;28;20605;-74
2023/11/10 01:34:39;;;;;;;2.27;0.80;;;9.60;99.90;;;;;;5071385;28;20263;-74
2023/11/10 01:37:06;;;;;;;1.60;0.60;;;9.60;99.90;;;;;;5019793;28;20643;-74
2023/11/10 01:39:35;;;;;;;2.13;0.68;;;9.70;99.90;;;;;;5071014;28;20164;-74
2023/11/10 01:42:04;;;;;;;1.90;0.73;;;9.70;99.90;;;;;;5053286;28;20169;-74
2023/11/10 01:44:31;;;;;;;1.73;0.60;;;9.70;99.90;;;;;;5036703;28;20176;-74
2023/11/10 01:46:58;;;;;;;2.47;0.60;;;9.80;99.90;;;;;;5053041;28;20633;-74
2023/11/10 01:49:28;;;;;;;1.70;0.50;;;9.80;99.90;;;;;;5036803;28;20587;-74
2023/11/10 01:51:55;;;;;;;1.65;0.60;;;9.90;99.90;;;;;;5071125;28;20195;-74
2023/11/10 01:54:24;;;;;;;1.65;0.57;;;9.90;99.90;;;;;;5070577;28;20630;-74
2023/11/10 01:56:52;;;;;;;2.08;0.60;;;9.90;99.90;;;;;;5052844;28;20504;-74
2023/11/10 01:59:19;;;;;;;3.00;0.70;;;9.90;99.90;;;;;;5025558;28;20176;-74
2023/11/10 02:01:46;;;;;;;2.28;0.60;;;9.90;99.90;;;;;;5030911;28;20267;-74
2023/11/10 02:04:13;;;;;;;1.33;0.65;;;9.80;99.90;;;;;;5036156;28;20176;-76
2023/11/10 02:06:43;;;;;;;2.25;0.60;;;9.80;99.90;;;;;;5019381;28;20569;-74
2023/11/10 02:09:09;;;;;;;1.30;0.60;;;9.90;99.90;;;;;;5019179;28;20188;-74
2023/11/10 02:11:47;;;;;;;2.97;0.60;;;9.90;99.90;;;;;;5055083;28;20513;-74
2023/11/10 02:14:13;;;;;;;1.77;0.67;;;9.90;99.90;;;;;;5036204;28;20187;-74
2023/11/10 02:16:40;;;;;;;1.70;0.50;;;9.90;99.90;;;;;;5035882;28;20635;-74
2023/11/10 02:19:13;;;;;;;2.33;0.63;;;10.00;99.90;;;;;;5052701;28;20184;-74
2023/11/10 02:21:39;;;;;;;1.60;0.60;;;10.00;99.90;;;;;;5030372;28;20201;-74
2023/11/10 02:24:08;;;;;;;5.73;1.03;;;10.10;99.90;;;;;;5041704;28;20717;-75
2023/11/10 02:26:34;;;;;;;1.95;0.70;;;10.10;99.90;;;;;;5036041;28;20199;-74
2023/11/10 02:29:00;;;;;;;3.13;0.88;;;10.10;99.90;;;;;;5036030;28;20284;-74
2023/11/10 02:31:26;;;;;;;5.80;0.95;;;10.10;99.90;;;;;;5035944;28;20253;-74
2023/11/10 02:33:53;;;;;;;4.10;0.60;;;10.10;99.90;;;;;;5052571;28;20180;-74
2023/11/10 02:36:20;;;;;;;1.80;0.60;;;10.10;99.90;;;;;;5035764;28;20219;-74
2023/11/10 02:38:46;;;;;;;2.35;0.63;;;10.10;99.90;;;;;;5038205;28;20173;-74
2023/11/10 02:41:12;;;;;;;2.20;0.60;;;10.10;99.90;;;;;;5015953;28;20208;-74
2023/11/10 02:43:38;;;;;;;1.30;0.60;;;10.00;99.90;;;;;;5016398;28;20189;-74
2023/11/10 02:46:05;;;;;;;1.95;0.50;;;10.00;99.90;;;;;;5015905;28;20634;-74
2023/11/10 02:48:31;;;;;;;1.85;0.50;;;9.90;99.90;;;;;;5016766;28;20549;-74
2023/11/10 02:50:57;;;;;;;2.03;0.90;;;9.90;99.90;;;;;;5018469;28;20177;-74
2023/11/10 02:53:23;;;;;;;1.37;0.60;;;9.80;99.90;;;;;;5017669;28;20193;-74
2023/11/10 02:55:49;;;;;;;4.70;1.03;;;9.90;99.90;;;;;;5015886;28;20612;-73
2023/11/10 02:58:18;;;;;;;1.33;0.55;;;9.80;99.90;;;;;;5015865;28;20620;-74
2023/11/10 03:00:44;;;;;;;3.25;0.95;;;9.80;99.90;;;;;;5032289;28;20223;-73
2023/11/10 03:03:11;;;;;;;1.50;0.73;;;9.80;99.90;;;;;;5050319;28;20238;-74
2023/11/10 03:05:38;;;;;;;2.15;0.60;;;9.80;99.90;;;;;;5016111;28;20177;-74
2023/11/10 03:08:05;;;;;;;2.65;1.55;;;9.70;99.90;;;;;;5036168;28;20217;-74
2023/11/10 03:10:31;;;;;;;4.75;1.73;;;9.70;99.90;;;;;;5035934;28;20172;-74
2023/11/10 03:12:57;;;;;;;4.33;1.63;;;9.60;99.90;;;;;;5019693;28;20659;-75
2023/11/10 03:15:22;;;;;;;3.30;1.00;;;9.60;99.90;;;;;;5019263;28;20607;-75
2023/11/10 03:17:48;;;;;;;2.80;1.10;;;9.50;99.90;;;;;;5035984;28;20205;-75
2023/11/10 03:20:15;;;;;;;3.78;0.82;;;9.40;99.90;;;;;;5035693;28;20176;-75
2023/11/10 03:22:42;;;;;;;1.48;0.73;;;9.40;99.90;;;;;;5036052;28;20180;-75
2023/11/10 03:25:08;;;;;;;2.20;0.73;;;9.40;99.90;;;;;;5035801;28;20169;-75
2023/11/10 03:27:34;;;;;;;1.85;0.75;;;9.30;99.90;;;;;;5019459;28;20197;-75
2023/11/10 03:30:00;;;;;;;4.00;0.77;;;9.30;99.90;;;;;;5002806;28;20242;-75
2023/11/10 03:32:25;;;;;;;1.20;0.67;;;9.30;99.90;;;;;;5019637;28;20276;-75
2023/11/10 03:34:51;;;;;;;5.13;0.80;;;9.30;99.90;;;;;;5035852;28;20177;-75
2023/11/10 03:37:17;;;;;;;3.77;0.90;;;9.30;99.90;;;;;;5053393;28;20208;-75
2023/11/10 03:39:43;;;;;;;2.47;0.80;;;9.30;99.90;;;;;;5035304;28;21168;-75
2023/11/10 03:42:09;;;;;;;3.10;0.77;;;9.30;99.90;;;;;;5018913;28;20231;-75
2023/11/10 03:44:36;;;;;;;1.63;0.80;;;9.30;99.90;;;;;;5036571;28;20219;-75
2023/11/10 03:47:02;;;;;;;2.55;0.60;;;9.40;99.90;;;;;;5027864;28;21209;-75
2023/11/10 03:49:28;;;;;;;1.30;0.60;;;9.40;99.90;;;;;;5035100;28;20234;-75
2023/11/10 03:51:54;;;;;;;5.10;0.75;;;9.50;99.90;;;;;;5019507;28;20177;-75
2023/11/10 03:54:20;;;;;;;2.33;0.70;;;9.50;99.90;;;;;;5035602;28;20185;-74
2023/11/10 03:56:46;;;;;;;2.63;0.60;;;9.50;99.90;;;;;;5018973;28;20212;-73
2023/11/10 03:59:12;;;;;;;1.50;0.60;;;9.60;99.90;;;;;;5053608;28;20165;-74
2023/11/10 04:01:39;;;;;;;3.10;0.80;;;9.60;99.90;;;;;;5053169;28;20177;-74
2023/11/10 04:04:07;;;;;;;1.95;0.60;;;9.60;99.90;;;;;;5035446;28;20670;-74
2023/11/10 04:06:34;;;;;;;3.05;0.70;;;9.60;99.90;;;;;;5040325;28;20220;-74
2023/11/10 04:09:00;;;;;;;2.38;0.80;;;9.70;99.90;;;;;;5018897;28;20184;-74
2023/11/10 04:11:27;;;;;;;1.95;0.60;;;9.70;99.90;;;;;;5035100;28;20784;-74
2023/11/10 04:13:56;;;;;;;5.70;0.90;;;9.70;99.90;;;;;;5058485;22;20190;-75
2023/11/10 04:16:31;;;;;;;1.40;0.60;;;9.80;99.90;;;;;;5034723;28;20184;-75
2023/11/10 04:18:57;;;;;;;1.50;0.60;;;9.80;99.90;;;;;;5054623;28;20184;-75
2023/11/10 04:21:24;;;;;;;2.27;0.70;;;9.80;99.90;;;;;;5060439;28;20169;-75
2023/11/10 04:23:50;;;;;;;2.00;0.60;;;9.90;99.90;;;;;;5021733;28;20179;-75
2023/11/10 04:26:16;;;;;;;5.00;0.70;;;9.90;99.90;;;;;;5017984;28;20177;-75
2023/11/10 04:28:47;;;;;;;2.40;0.63;;;9.90;99.90;;;;;;5034915;28;20668;-75
2023/11/10 04:31:16;;;;;;;1.50;0.73;;;9.90;99.90;;;;;;5017934;28;20649;-75
2023/11/10 04:33:45;;;;;;;2.85;0.68;;;10.00;99.90;;;;;;5044376;28;20203;-75
2023/11/10 04:36:14;;;;;;;2.38;0.60;;;10.00;99.90;;;;;;5052487;28;20173;-75
2023/11/10 04:38:44;;;;;;;5.72;0.70;;;10.00;99.90;;;;;;5052452;28;20544;-75
2023/11/10 04:41:11;;;;;;;1.85;0.68;;;10.10;99.90;;;;;;5034107;28;20231;-75
2023/11/10 04:43:40;;;;;;;2.47;0.80;;;10.10;99.90;;;;;;5067518;28;20256;-75
2023/11/10 04:46:07;;;;;;;1.63;0.70;;;10.10;99.90;;;;;;5052416;28;20284;-75
2023/11/10 04:48:32;;;;;;;3.25;0.68;;;10.20;99.90;;;;;;5034524;28;20177;-76
2023/11/10 04:51:02;;;;;;;1.97;0.70;;;10.20;99.90;;;;;;5052200;28;20207;-76
2023/11/10 04:53:28;;;;;;;1.65;0.50;;;10.20;99.90;;;;;;5034442;28;20195;-75
2023/11/10 04:55:57;;;;;;;1.77;0.70;;;10.20;99.90;;;;;;5021335;28;20283;-75
2023/11/10 04:58:23;;;;;;;1.80;0.80;;;10.20;99.90;;;;;;5051861;28;20543;-75
2023/11/10 05:00:49;;;;;;;3.63;0.53;;;10.20;99.90;;;;;;5034015;28;20180;-75
2023/11/10 05:03:18;;;;;;;2.57;1.00;;;10.20;99.90;;;;;;5034016;28;20173;-77
2023/11/10 05:05:46;;;;;;;1.90;0.70;;;10.20;99.90;;;;;;5051877;28;20672;-76
2023/11/10 05:08:12;;;;;;;1.97;0.70;;;10.10;99.90;;;;;;5051734;28;20582;-75
2023/11/10 05:10:38;;;;;;;2.10;0.80;;;10.10;99.90;;;;;;5033810;28;20173;-76
2023/11/10 05:13:04;;;;;;;4.78;0.77;;;10.10;99.90;;;;;;5017464;28;20188;-75
2023/11/10 05:15:30;;;;;;;1.80;0.70;;;10.10;99.90;;;;;;5051566;28;20717;-75
2023/11/10 05:18:00;;;;;;;2.65;0.70;;;10.10;99.90;;;;;;5017301;28;20608;-75
2023/11/10 05:20:26;;;;;;;2.17;0.68;;;10.10;99.90;;;;;;5033489;28;20550;-75
2023/11/10 05:22:52;;;;;;;1.47;0.60;;;10.20;99.90;;;;;;5051658;28;20180;-75
2023/11/10 05:25:18;;;;;;;1.50;0.60;;;10.20;99.90;;;;;;5033452;28;20197;-76
2023/11/10 05:27:43;;;;;;;2.60;0.70;;;10.20;99.90;;;;;;5033685;28;20180;-76
2023/11/10 05:30:12;;;;;;;2.20;0.70;;;10.30;99.90;;;;;;5033000;28;20601;-76
2023/11/10 05:32:38;;;;;;;3.40;0.60;;;10.30;99.90;;;;;;5037249;28;20180;-75
2023/11/10 05:35:06;;;;;;;1.88;0.65;;;10.30;99.90;;;;;;5017219;28;20658;-76
2023/11/10 05:37:32;;;;;;;3.40;0.95;;;10.30;99.90;;;;;;5051322;28;20219;-76
2023/11/10 05:39:59;;;;;;;3.00;0.60;;;10.40;99.90;;;;;;5033494;28;20183;-75
2023/11/10 05:42:25;;;;;;;1.60;0.60;;;10.40;99.90;;;;;;5033747;28;20169;-75
2023/11/10 05:44:53;;;;;;;1.73;0.60;;;10.40;99.90;;;;;;5033739;28;20215;-75
2023/11/10 05:47:19;;;;;;;2.60;1.17;;;10.40;99.90;;;;;;5051112;28;20279;-76
2023/11/10 05:49:48;;;;;;;2.35;0.60;;;10.40;99.90;;;;;;5050986;28;20220;-76
2023/11/10 05:52:13;;;;;;;2.95;0.77;;;10.40;99.90;;;;;;5033074;28;20204;-76
2023/11/10 05:54:40;;;;;;;1.30;0.73;;;10.50;99.90;;;;;;5033215;28;20181;-76
2023/11/10 05:57:06;;;;;;;2.60;1.00;;;10.50;99.90;;;;;;5033024;28;20738;-76
2023/11/10 05:59:32;;;;;;;3.55;0.70;;;10.50;99.90;;;;;;5050706;28;20203;-77
2023/11/10 06:02:01;;;;;;;2.90;0.68;;;10.50;99.90;;;;;;4999924;28;20273;-77
2023/11/10 06:04:29;;;;;;;4.03;1.10;;;10.50;99.90;;;;;;5033079;28;20693;-78
2023/11/10 06:06:55;;;;;;;1.98;0.60;;;10.50;99.90;;;;;;5032198;28;20189;-77
2023/11/10 06:09:25;;;;;;;2.05;0.60;;;10.50;99.90;;;;;;5052486;28;20572;-77
2023/11/10 06:11:51;;;;;;;2.40;0.70;;;10.50;99.90;;;;;;5022016;28;20264;-77
2023/11/10 06:14:20;;;;;;;2.47;0.70;;;10.50;99.90;;;;;;5016029;28;20209;-77
2023/11/10 06:16:47;;;;;;;3.33;0.60;;;10.50;99.90;;;;;;5056281;28;20208;-76
2023/11/10 06:19:13;;;;;;;4.07;0.95;;;10.60;99.90;;;;;;5032991;28;20302;-77
2023/11/10 06:21:39;;;;;;;2.00;0.80;;;10.60;99.90;;;;;;5050715;28;20721;-77
2023/11/10 06:24:08;;;;;;;2.88;0.80;;;10.60;99.90;;;;;;5015870;28;20706;-77
2023/11/10 06:26:55;;;;;;;1.88;0.70;;;10.60;99.90;;;;;;5048908;28;20260;-77
2023/11/10 06:29:21;;;;;;;3.47;0.90;;;10.70;99.90;;;;;;5032608;28;20225;-77
2023/11/10 06:32:01;;;;;;;3.03;0.80;;;10.70;99.90;;;;;;5050876;28;20204;-76
2023/11/10 06:34:33;;;;;;;2.05;0.77;;;10.70;99.90;;;;;;5015846;28;20192;-76
2023/11/10 06:37:01;;;;;;;3.47;0.80;;;10.70;99.90;;;;;;5040435;28;20216;-76
2023/11/10 06:39:26;;;;;;;3.60;0.85;;;10.70;99.90;;;;;;5050374;28;20177;-76
2023/11/10 06:41:52;;;;;;;2.53;1.00;;;10.70;99.90;;;;;;5032447;28;20177;-76
2023/11/10 06:44:20;;;;;;;3.13;0.83;;;10.70;99.90;;;;;;5053775;28;20199;-76
2023/11/10 06:46:46;;;;;;;3.13;1.13;;;10.70;99.90;;;;;;5040899;28;20161;-76
2023/11/10 06:49:17;;;;;;;3.13;1.27;;;10.60;99.90;;;;;;5054691;28;20185;-76
2023/11/10 06:51:50;;;;;;;2.13;0.80;;;10.60;99.90;;;;;;5036673;28;20259;-75
2023/11/10 06:54:16;;;;;;;1.73;0.77;;;10.50;99.90;;;;;;5036119;28;20299;-75
2023/11/10 06:56:41;;;;;;;3.77;1.17;;;10.50;99.90;;;;;;5036379;28;20172;-76
2023/11/10 06:59:07;;;;;;;1.60;0.77;;;10.40;99.90;;;;;;5036609;28;20315;-76
2023/11/10 07:01:33;;;;;;;3.90;0.80;;;10.40;99.90;;;;;;5054027;28;20176;-76
2023/11/10 07:03:59;;;;;;;3.73;0.70;;;10.40;99.90;;;;;;5036404;28;20196;-76
2023/11/10 07:06:25;;;;;;;5.53;0.90;;;10.40;99.90;;;;;;5036224;28;20753;-76
2023/11/10 07:08:51;;;;;;;2.20;0.80;;;10.40;99.90;;;;;;5019749;28;20184;-76
2023/11/10 07:11:21;;;;;;;3.10;1.00;;;10.50;99.90;;;;;;5053516;28;20506;-76
2023/11/10 07:13:50;;;;;;;2.33;0.80;;;10.50;99.90;;;;;;5033227;28;20173;-76
2023/11/10 07:16:16;;;;;;;2.85;1.02;;;10.60;99.90;;;;;;5036189;28;20272;-77
2023/11/10 07:18:42;;;;;;;2.97;0.98;;;10.60;99.90;;;;;;5033517;28;20281;-76
2023/11/10 07:21:10;;;;;;;1.97;0.90;;;10.70;99.90;;;;;;5035901;28;20212;-75
2023/11/10 07:23:42;;;;;;;3.35;1.02;;;10.70;99.90;;;;;;5056128;28;20212;-75
2023/11/10 07:26:08;;;;;;;1.70;1.05;;;10.80;99.90;;;;;;5035770;28;20185;-76
2023/11/10 07:28:34;;;;;;;3.00;0.90;;;10.90;99.90;;;;;;5019217;28;20173;-76
2023/11/10 07:31:00;;;;;;;2.10;0.97;;;10.90;99.90;;;;;;5051601;28;20173;-77
2023/11/10 07:33:29;;;;;;;4.68;1.10;;;10.90;99.90;;;;;;5048078;28;20173;-75
2023/11/10 07:35:58;;;;;;;3.30;1.77;;;11.00;99.90;;;;;;5034643;28;21152;-75
2023/11/10 07:38:24;;;;;;;3.95;1.50;;;11.00;99.90;;;;;;5035095;28;20235;-76
2023/11/10 07:40:49;;;;;;;4.27;1.47;;;11.10;99.90;;;;;;5034909;28;20235;-75
2023/11/10 07:43:17;;;;;;;3.40;1.00;;;11.10;99.90;;;;;;5037933;28;20230;-75
2023/11/10 07:45:44;;;;;;;4.20;1.20;;;11.20;99.90;;;;;;5052229;28;20207;-75
2023/11/10 07:48:15;;;;;;;5.60;1.85;;;11.30;99.90;;;;;;5018628;28;20255;-75
2023/11/10 07:50:41;;;;;;;3.35;1.30;;;11.40;99.90;;;;;;5052837;28;20203;-75
2023/11/10 07:53:07;;;;;;;1.85;1.00;;;11.50;99.90;;;;;;5033831;28;20181;-75
2023/11/10 07:55:33;;;;;;;3.07;0.77;;;11.60;99.90;;;;;;5034969;28;20550;-74
2023/11/10 07:57:59;;;;;;;2.72;0.75;;;11.70;99.90;;;;;;5034722;28;20205;-74
2023/11/10 08:00:25;;;;;;;2.50;0.70;;;11.80;99.90;;;;;;5038597;28;20713;-75
2023/11/10 08:02:53;;;;;;;1.63;0.80;;;11.90;99.90;;;;;;5035091;28;20191;-75
2023/11/10 08:05:20;;;;;;;3.05;0.80;;;11.80;99.90;;;;;;5052690;28;20636;-75
2023/11/10 08:07:52;;;;;;;4.95;0.93;;;11.80;99.90;;;;;;5035001;28;20173;-75
2023/11/10 08:10:19;;;;;;;3.35;1.10;;;11.80;99.90;;;;;;5017943;28;20212;-75
2023/11/10 08:12:45;;;;;;;2.53;0.80;;;11.80;99.90;;;;;;5029267;28;20181;-75
2023/11/10 08:15:11;;;;;;;3.73;1.00;;;11.80;99.90;;;;;;5033940;28;20662;-75
2023/11/10 08:17:37;;;;;;;2.13;0.77;;;11.90;99.90;;;;;;5033587;28;20646;-76
2023/11/10 08:20:03;;;;;;;2.33;0.70;;;12.00;99.90;;;;;;5052527;28;20598;-75
2023/11/10 08:22:31;;;;;;;2.58;0.73;;;12.10;99.90;;;;;;5033032;28;20256;-75
2023/11/10 08:24:57;;;;;;;3.95;0.70;;;12.20;99.90;;;;;;5034053;28;20221;-75
2023/11/10 08:27:23;;;;;;;3.40;1.00;;;12.40;99.90;;;;;;5017926;28;20228;-76
2023/11/10 08:29:49;;;;;;;3.97;0.93;;;12.50;99.90;;;;;;5034587;28;20213;-76
2023/11/10 08:32:14;;;;;;;1.60;0.90;;;12.60;99.90;;;;;;5051963;28;20587;-76
2023/11/10 08:34:40;;;;;;;4.03;1.27;;;12.70;99.90;;;;;;5051761;28;20738;-76
2023/11/10 08:37:06;;;;;;;2.83;1.30;;;12.80;99.90;;;;;;5004176;28;20732;-76
2023/11/10 08:39:31;;;;;;;6.37;1.00;;;12.90;99.90;;;;;;5033686;28;20701;-76
2023/11/10 08:41:58;;;;;;;5.50;0.90;;;13.00;99.90;;;;;;5016602;28;20169;-76
2023/11/10 08:44:26;;;;;;;2.90;1.10;;;13.10;99.90;;;;;;5030576;28;20284;-76
2023/11/10 08:46:51;;;;;;;1.90;0.80;;;13.20;99.90;;;;;;5033777;28;20592;-77
2023/11/10 08:49:18;;;;;;;2.90;1.10;;;13.30;99.90;;;;;;5052310;28;20589;-77
2023/11/10 08:51:43;;;;;;;3.20;1.17;;;13.40;99.90;;;;;;5034215;28;20177;-75
2023/11/10 08:54:12;;;;;;;3.20;0.70;;;13.50;99.90;;;;;;5052081;28;20616;-75
2023/11/10 08:56:38;;;;;;;2.40;0.83;;;13.60;99.90;;;;;;5033851;28;20583;-76
2023/11/10 08:59:04;;;;;;;2.40;0.70;;;13.60;99.90;;;;;;5034244;28;20584;-76
2023/11/10 09:01:31;;;;;;;4.03;0.70;;;13.60;99.90;;;;;;5034110;28;20591;-76
2023/11/10 09:03:56;;;;;;;1.50;0.53;;;13.60;99.90;;;;;;5033532;28;20978;-76
2023/11/10 09:06:22;;;;;;;3.03;0.80;;;13.60;99.90;;;;;;5033825;28;20598;-76
2023/11/10 09:08:56;;;;;;;1.93;0.80;;;13.60;99.90;;;;;;5051750;28;20192;-76
2023/11/10 09:11:21;;;;;;;3.73;0.70;;;13.60;99.90;;;;;;5051682;28;21521;-77
2023/11/10 09:13:47;;;;;;;2.37;0.70;;;13.60;99.90;;;;;;5020337;28;20670;-77
2023/11/10 09:16:13;;;;;;;1.90;0.60;;;13.50;99.90;;;;;;5034038;28;20615;-76
2023/11/10 09:18:38;;;;;;;1.77;0.60;;;13.50;99.90;;;;;;5051558;28;20205;-76
2023/11/10 09:21:07;;;;;;;1.67;0.60;;;13.40;99.90;;;;;;5033788;28;20659;-74
2023/11/10 09:23:34;;;;;;;1.70;0.80;;;13.40;99.90;;;;;;5000796;28;20185;-75
2023/11/10 09:26:01;;;;;;;1.87;0.70;;;13.40;99.90;;;;;;5016737;28;20697;-74
2023/11/10 09:28:27;;;;;;;3.03;0.77;;;13.40;99.90;;;;;;5033539;28;21196;-75
2023/11/10 09:30:53;;;;;;;1.60;0.50;;;13.40;99.90;;;;;;5033748;28;20580;-77
2023/11/10 09:33:21;;;;;;;2.17;0.70;;;13.40;99.90;;;;;;5051737;28;20579;-77
2023/11/10 09:35:48;;;;;;;4.53;0.90;;;13.50;99.90;;;;;;5012345;28;20627;-77
2023/11/10 09:38:14;;;;;;;1.60;0.63;;;13.50;99.90;;;;;;5032823;28;20753;-78
2023/11/10 09:40:40;;;;;;;2.57;0.80;;;13.50;99.90;;;;;;5050983;28;20670;-78
2023/11/10 09:43:07;;;;;;;2.53;0.70;;;13.40;99.90;;;;;;5033592;28;20665;-78
2023/11/10 09:45:35;;;;;;;2.47;0.70;;;13.40;99.90;;;;;;5051517;28;20607;-78
2023/11/10 09:48:06;;;;;;;2.33;0.77;;;13.30;99.90;;;;;;5017230;28;21207;-78
2023/11/10 09:50:36;;;;;;;2.20;0.90;;;13.30;99.90;;;;;;5045714;28;20177;-78
2023/11/10 09:53:06;;;;;;;3.10;0.80;;;13.40;99.90;;;;;;5033563;28;20604;-78
2023/11/10 09:55:35;;;;;;;1.93;0.70;;;13.40;99.90;;;;;;5051037;28;20773;-78
2023/11/10 09:58:02;;;;;;;3.10;0.70;;;13.50;99.90;;;;;;5051053;28;21160;-79
2023/11/10 10:00:28;;;;;;;1.90;0.70;;;13.70;99.90;;;;;;5050205;28;20637;-78
2023/11/10 10:02:54;;;;;;;3.00;0.67;;;13.80;99.90;;;;;;5033191;28;20576;-78
2023/11/10 10:05:22;;;;;;;1.93;0.70;;;13.90;99.90;;;;;;5049737;28;21262;-78
2023/11/10 10:07:50;;;;;;;2.00;0.73;;;13.80;99.90;;;;;;5049467;28;20180;-78
2023/11/10 10:10:18;;;;;;;2.23;0.63;;;13.90;99.90;;;;;;5032962;28;20599;-78
2023/11/10 10:12:44;;;;;;;2.90;0.60;;;13.90;99.90;;;;;;5050954;28;20595;-78
2023/11/10 10:15:12;;;;;;;3.40;0.80;;;13.90;99.90;;;;;;5032841;28;20643;-78
2023/11/10 10:17:38;;;;;;;2.27;0.60;;;13.90;99.90;;;;;;5032690;28;20567;-78
2023/11/10 10:20:18;;;;;;;3.80;1.10;;;13.90;99.90;;;;;;5050594;28;20683;-78
2023/11/10 10:22:48;;;;;;;3.63;0.70;;;14.00;99.90;;;;;;5032883;28;20181;-78
2023/11/10 10:25:20;;;;;;;4.50;0.60;;;14.00;99.90;;;;;;5032762;28;20619;-78
2023/11/10 10:27:47;;;;;;;2.80;0.80;;;14.10;99.90;;;;;;5036330;28;20936;-78
2023/11/10 10:30:13;;;;;;;1.97;1.03;;;14.20;99.90;;;;;;5032959;28;20649;-78
2023/11/10 10:32:40;;;;;;;1.90;0.60;;;14.30;99.90;;;;;;5016542;28;20687;-78
2023/11/10 10:35:07;;;;;;;1.93;0.70;;;14.40;99.90;;;;;;5032784;28;20714;-78
2023/11/10 10:37:36;;;;;;;4.47;0.73;;;14.50;99.90;;;;;;5050462;28;20622;-78
2023/11/10 10:40:06;;;;;;;2.70;0.63;;;14.50;99.90;;;;;;5050422;28;20641;-78
2023/11/10 10:42:34;;;;;;;1.83;0.63;;;14.60;99.90;;;;;;5016642;28;20641;-78
2023/11/10 10:45:04;;;;;;;2.73;0.60;;;14.70;99.90;;;;;;5058970;28;21240;-78
2023/11/10 10:47:32;;;;;;;2.00;0.60;;;14.70;99.90;;;;;;5050341;28;20890;-78
2023/11/10 10:49:59;;;;;;;3.27;0.60;;;14.60;99.90;;;;;;5032445;28;20603;-78
2023/11/10 10:52:27;;;;;;;2.00;0.73;;;14.70;99.90;;;;;;5050449;28;20611;-78
2023/11/10 10:54:54;;;;;;;1.90;0.70;;;14.70;99.90;;;;;;5032563;28;20965;-78
2023/11/10 10:57:22;;;;;;;2.50;0.70;;;14.70;99.90;;;;;;5048889;28;20634;-78
2023/11/10 10:59:51;;;;;;;3.03;0.70;;;14.70;99.90;;;;;;5032263;28;20618;-78
2023/11/10 11:02:18;;;;;;;3.70;0.70;;;14.70;99.90;;;;;;5032794;28;20599;-78
2023/11/10 11:05:49;;;;;;;2.47;0.60;;;14.60;99.90;;;;;;5035592;28;20614;-79
2023/11/10 11:09:31;;;;;;;2.70;0.70;;;14.60;99.90;;;;;;5032202;28;20952;-78
2023/11/10 11:12:54;;;;;;;1.87;0.60;;;14.50;99.90;;;;;;5032324;28;20591;-78
2023/11/10 11:15:42;;;;;;;5.07;1.10;;;14.30;99.90;;;;;;5011433;28;20651;-78
2023/11/10 11:18:22;;;;;;;2.17;0.80;;;14.20;99.90;;;;;;5044048;28;20643;-77
2023/11/10 11:20:49;;;;;;;2.53;0.60;;;14.10;99.90;;;;;;5049633;28;20603;-78
2023/11/10 11:23:17;;;;;;;2.63;0.70;;;14.00;99.90;;;;;;5032361;28;20591;-78
2023/11/10 11:25:43;;;;;;;2.43;0.70;;;13.90;99.90;;;;;;5031765;28;20627;-78
2023/11/10 11:28:09;;;;;;;1.83;0.70;;;13.80;99.90;;;;;;5034432;28;20967;-78
2023/11/10 11:30:40;;;;;;;2.93;0.90;;;13.90;99.90;;;;;;5035767;28;20192;-77
2023/11/10 11:33:12;;;;;;;3.13;0.70;;;13.90;99.90;;;;;;5035304;28;20226;-77
2023/11/10 11:35:43;;;;;;;2.70;0.70;;;13.90;99.90;;;;;;5035713;28;20619;-77
2023/11/10 11:38:09;;;;;;;5.40;1.00;;;14.00;99.90;;;;;;5036179;28;20654;-78
2023/11/10 11:40:35;;;;;;;3.70;0.70;;;14.00;99.90;;;;;;5054000;28;20591;-78
2023/11/10 11:43:12;;;;;;;4.60;0.90;;;14.10;99.90;;;;;;5057101;28;20177;-77
2023/11/10 11:45:41;;;;;;;2.40;0.77;;;14.10;99.90;;;;;;5035387;28;20188;-78
2023/11/10 11:48:09;;;;;;;2.90;1.23;;;14.20;99.90;;;;;;5053789;28;20587;-78
2023/11/10 11:50:35;;;;;;;4.57;0.80;;;14.30;99.90;;;;;;5035358;28;20598;-78
2023/11/10 11:53:01;;;;;;;4.53;1.23;;;14.30;99.90;;;;;;5035700;28;20583;-78
2023/11/10 11:55:27;;;;;;;2.03;0.80;;;14.30;99.90;;;;;;5034990;28;20611;-78
2023/11/10 11:57:54;;;;;;;4.80;0.70;;;14.30;99.90;;;;;;5035442;28;20291;-78
2023/11/10 12:00:21;;;;;;;3.40;0.70;;;14.20;99.90;;;;;;5035267;28;20990;-78
2023/11/10 12:02:52;;;;;;;2.03;0.67;;;14.20;99.90;;;;;;5035376;28;20628;-79
2023/11/10 12:05:18;;;;;;;3.33;0.70;;;14.10;99.90;;;;;;5050635;28;20631;-77
2023/11/10 12:07:44;;;;;;;2.93;0.70;;;14.00;99.90;;;;;;5053030;28;20591;-77
2023/11/10 12:10:12;;;;;;;3.77;0.60;;;14.00;99.90;;;;;;5035173;28;20705;-78
2023/11/10 12:12:41;;;;;;;1.80;0.60;;;14.00;99.90;;;;;;5018896;28;20681;-78
2023/11/10 12:15:10;;;;;;;1.60;0.50;;;13.90;99.90;;;;;;5034712;28;21282;-78
2023/11/10 12:17:37;;;;;;;3.53;0.70;;;13.90;99.90;;;;;;5035289;28;20211;-80
2023/11/10 12:20:04;;;;;;;3.00;0.70;;;13.80;99.90;;;;;;5056333;28;20685;-79
2023/11/10 12:22:30;;;;;;;4.00;0.87;;;13.80;99.90;;;;;;5035329;28;20587;-79
2023/11/10 12:24:59;;;;;;;2.90;0.63;;;13.70;99.90;;;;;;5052847;28;20711;-79
2023/11/10 12:27:25;;;;;;;1.83;0.60;;;13.70;99.90;;;;;;5051526;28;20173;-79
2023/11/10 12:29:54;;;;;;;2.03;0.60;;;13.60;99.90;;;;;;5043790;28;20598;-79
2023/11/10 12:32:20;;;;;;;2.70;0.70;;;13.60;99.90;;;;;;5034898;28;20188;-79
2023/11/10 12:34:47;;;;;;;2.10;0.50;;;13.60;99.90;;;;;;5052673;28;20627;-79
2023/11/10 12:37:16;;;;;;;1.57;0.60;;;13.60;99.90;;;;;;5052467;28;20635;-79
2023/11/10 12:39:43;;;;;;;1.93;0.50;;;13.70;99.90;;;;;;5052397;28;20576;-79
2023/11/10 12:42:08;;;;;;;3.07;0.50;;;13.70;99.90;;;;;;5035014;28;20615;-78
2023/11/10 12:44:34;;;;;;;1.77;0.50;;;13.80;99.90;;;;;;5034560;28;20608;-77
2023/11/10 12:47:06;;;;;;;2.30;0.60;;;13.80;99.90;;;;;;5035023;28;20657;-77
2023/11/10 12:49:32;;;;;;;1.90;0.50;;;13.80;99.90;;;;;;5052603;28;20530;-78
2023/11/10 12:52:01;;;;;;;1.60;1.03;;;13.90;99.90;;;;;;5034614;28;20588;-78
2023/11/10 12:54:28;;;;;;;2.00;0.70;;;13.90;99.90;;;;;;5035194;28;21276;-79